Alta Vista, Kansas
Current Conditions -  °F | °C
As of 5:58 AM on Friday 24 Oct 2014 (Local Time) from KFRI Reporting Station
Clear Clear  
Wind Chill: 15°   Ceiling: Unl
Heat Index: 15°   Visibility: 10mi
Dew Point: 15°   Wind: 3mph
Humidity: 100%   Direction: 230°SW
Pressure: 30.03"   Gusts: NA
Location:  38.86°N, 96.49°W
Report Text: KFRI 241058Z AUTO 23003KT 10SM CLR 15/15 A3003 RMK AO2 SLP162 T01470147
Loading
Personal Weather Stations






























Interactive Weather Map
Tropical Storm Tracking
New forecast layout! Learn more

10-Day Weather Forecast

Advertisements
Track Severe Weather on mobile